Hunter, Pennsylvania
Current Conditions -  °F | °C
As of 12:53 AM on Monday 22 Dec 2014 (Local Time) from KSEG Reporting Station
Haze Haze  
Wind Chill: 20°   Ceiling: Unl
Heat Index: 20°   Visibility: 5mi
Dew Point: 18°   Wind: 0mph
Humidity: 92%   Direction: NA
Pressure: 30.32"   Gusts: NA
Location:  40.7842°N, 76.5797°W
Report Text: KSEG 220553Z AUTO 00000KT 5SM BR CLR M07/M08 A3032 RMK AO2 SLP274 I1000 I6000 T10671078 11039 21067 58005
Loading
Personal Weather Stations






























Interactive Weather Map New forecast layout! Learn more

10-Day Weather Forecast

Advertisements
Track Severe Weather on mobile